Airfield :







YOU CAN JOIN US ON...

 
LOGIN :

Register | Disclaimer

   EN    FR    IT 

 









Legend :    VFR   Marginal VFR   IFR   Intensive IFR   Very Intensive IFR
Visi :
Ceiling :
>= 8 km
>= 3000ft
5 to 8 km
1000 to 3000 ft
1500m to 5 km
500 to 1000 ft
800 to 1500m
200 to 500 ft
< 800m
< 200 ft
Symbols :   Thunderstorms  Fog  Heavy snow  Heavy precipitations  Wind > 20 kt







- Airport Elevation : 489 ft


KHUL - Houlton International

CURRENT METAR :
  • 232113Z AUTO 03009KT 2SM BR BKN008 OVC013 03/02 A2995 RMK AO2 RAE03 CIG 005V010 P0000 T00330022

EXPIRED METARs :
  • 232053Z AUTO 02012KT 1 3/4SM -RA BR BKN007 OVC015 04/03 A2996 RMK AO2 RAE08B44 CIG 005V010 SLP148 P0000 60001 T00390028 56017
  • 232040Z AUTO 03010KT 1 3/4SM BR FEW007 OVC015 04/03 A2995 RMK AO2 RAE08 P0000 T00440028
  • 232025Z AUTO 05011G18KT 2SM BR OVC015 04/02 A2995 RMK AO2 RAE08 P0000 T00390022
  • 231953Z AUTO 04013G20KT 10SM -RA OVC017 04/02 A2996 RMK AO2 RAE26B52 SLP149 P0000 T00440022
  • 231853Z AUTO 04013G19KT 10SM -RA OVC015 04/02 A2998 RMK AO2 RAB02 SLP157 P0001 T00440022

TAF KHUL
Valid from the 23 at 18:00 until the 24 at 18:00 UTC


231812Z 2318/2418 05009G15KT 3SM -RA SCT005 OVC010
FM232300 05009KT P6SM VCSH OVC009
FM240400 03004KT P6SM OVC007
FM241200 09005KT 5SM -RA OVC007
KZBW FIR / North America



MET'MAP, your aeronautical weather chart ! - Copyright ORBIFLY December 2007 - Disclaimer

ORBIFLY MET'MAP TEAM :

Programming & Development : Alexandra Zaïnal
Concept & Development : Baudouin d'Aumeries
Co-Development & Prog : Marc-Olivier Méhu
Technical & hardware support : Manuel Goepfert

Contact : metmap@orbifly.com




SOURCES & CREDITS :

   NOAA